createdAt,value
2017-04-29T00:00:51.250Z,940.78
2017-04-29T00:02:05.087Z,940.78
2017-04-29T00:03:18.310Z,940.77
2017-04-29T00:04:32.281Z,940.78
2017-04-29T00:05:46.412Z,940.76
2017-04-29T00:06:59.662Z,940.76
2017-04-29T00:08:13.661Z,940.77
2017-04-29T00:09:27.476Z,940.75
2017-04-29T00:10:41.397Z,940.73
2017-04-29T00:11:55.223Z,940.75
2017-04-29T00:13:08.991Z,940.78
2017-04-29T00:14:22.634Z,940.76
2017-04-29T00:15:36.259Z,940.78
2017-04-29T00:16:50.026Z,940.81
2017-04-29T00:18:04.167Z,940.81
2017-04-29T00:19:18.510Z,940.83
2017-04-29T00:20:32.658Z,940.83
2017-04-29T00:21:47.050Z,940.8
2017-04-29T00:23:01.282Z,940.86
2017-04-29T00:24:14.930Z,940.86
2017-04-29T00:25:29.215Z,940.86
2017-04-29T00:26:43.173Z,940.88
2017-04-29T00:27:57.395Z,940.88
2017-04-29T00:29:11.217Z,940.88
2017-04-29T00:30:25.576Z,940.88
2017-04-29T00:31:39.781Z,940.88
2017-04-29T00:33:07.884Z,940.88
2017-04-29T00:34:22.322Z,940.9
2017-04-29T00:35:36.145Z,940.89
2017-04-29T00:36:50.578Z,940.86
2017-04-29T00:38:04.375Z,940.86
2017-04-29T00:39:17.532Z,940.83
2017-04-29T00:40:31.789Z,940.84
2017-04-29T00:41:44.534Z,940.79
2017-04-29T00:42:57.274Z,940.79
2017-04-29T00:44:10.021Z,940.81
2017-04-29T00:45:22.282Z,940.83
2017-04-29T00:46:35.025Z,940.86
2017-04-29T00:47:47.762Z,940.86
2017-04-29T00:49:00.504Z,940.88
2017-04-29T00:50:13.247Z,940.88
2017-04-29T00:51:25.995Z,940.86
2017-04-29T00:52:38.733Z,940.77
2017-04-29T00:53:51.722Z,940.85
2017-04-29T00:55:04.491Z,940.86
2017-04-29T00:56:17.229Z,940.88
2017-04-29T00:57:29.486Z,940.87
2017-04-29T00:58:41.763Z,940.86
2017-04-29T00:59:54.503Z,940.84
2017-04-29T01:01:06.758Z,940.87
2017-04-29T01:02:19.493Z,940.9
2017-04-29T01:03:32.231Z,940.87
2017-04-29T01:04:44.974Z,940.84
2017-04-29T01:05:57.713Z,940.83
2017-04-29T01:07:10.449Z,940.83
2017-04-29T01:08:23.185Z,940.84
2017-04-29T01:09:35.693Z,940.86
2017-04-29T01:10:48.425Z,940.86
2017-04-29T01:12:00.682Z,940.83
2017-04-29T01:13:12.937Z,940.85
2017-04-29T01:14:25.674Z,940.83
2017-04-29T01:15:38.411Z,940.82
2017-04-29T01:16:51.139Z,940.89
2017-04-29T01:18:03.397Z,940.86
2017-04-29T01:19:15.657Z,940.83
2017-04-29T01:20:28.699Z,940.87
2017-04-29T01:21:41.434Z,940.85
2017-04-29T01:22:54.171Z,940.86
2017-04-29T01:24:06.909Z,940.85
2017-04-29T01:25:19.657Z,940.82
2017-04-29T01:26:32.455Z,940.82
2017-04-29T01:27:44.840Z,940.8
2017-04-29T01:28:57.128Z,940.76
2017-04-29T01:30:09.942Z,940.78
2017-04-29T01:31:22.530Z,940.81
2017-04-29T01:32:35.364Z,940.84
2017-04-29T01:33:48.151Z,940.81
2017-04-29T01:35:00.924Z,940.83
2017-04-29T01:36:13.754Z,940.83
2017-04-29T01:37:25.869Z,940.8
2017-04-29T01:38:38.659Z,940.84
2017-04-29T01:39:50.939Z,940.86
2017-04-29T01:41:03.238Z,940.86
2017-04-29T01:42:15.789Z,940.88
2017-04-29T01:43:28.110Z,940.85
2017-04-29T01:44:40.395Z,940.87
2017-04-29T01:45:53.142Z,940.88
2017-04-29T01:47:05.918Z,940.84
2017-04-29T01:48:18.946Z,940.81
2017-04-29T01:49:31.782Z,940.79
2017-04-29T01:50:44.571Z,940.81
2017-04-29T01:51:56.988Z,940.8
2017-04-29T01:53:09.808Z,940.82
2017-04-29T01:54:22.172Z,940.76
2017-04-29T01:55:35.025Z,940.76
2017-04-29T01:56:47.947Z,940.72
2017-04-29T01:58:00.731Z,940.79
2017-04-29T01:59:13.387Z,940.8
2017-04-29T02:00:25.744Z,940.8
2017-04-29T02:01:38.529Z,940.8
2017-04-29T02:02:51.319Z,940.82
2017-04-29T02:04:04.421Z,940.84
2017-04-29T02:05:15.751Z,940.86
2017-04-29T02:06:28.521Z,940.86
2017-04-29T02:07:41.390Z,940.84
2017-04-29T02:08:54.495Z,940.86
2017-04-29T02:10:07.353Z,940.86
2017-04-29T02:11:20.337Z,940.9
2017-04-29T02:12:33.417Z,940.89
2017-04-29T02:13:46.513Z,940.93
2017-04-29T02:14:59.636Z,940.91
2017-04-29T02:16:11.463Z,940.9
2017-04-29T02:17:23.342Z,940.87
2017-04-29T02:18:36.222Z,940.85
2017-04-29T02:19:49.061Z,940.85
2017-04-29T02:21:01.947Z,940.83
2017-04-29T02:22:14.927Z,940.85
2017-04-29T02:23:27.682Z,940.87
2017-04-29T02:24:40.426Z,940.88
2017-04-29T02:25:53.162Z,940.87
2017-04-29T02:27:05.909Z,940.87
2017-04-29T02:28:18.186Z,940.88
2017-04-29T02:29:30.938Z,940.86
2017-04-29T02:30:43.687Z,940.91
2017-04-29T02:31:56.431Z,940.89
2017-04-29T02:33:09.176Z,940.86
2017-04-29T02:34:21.917Z,940.86
2017-04-29T02:35:34.655Z,940.85
2017-04-29T02:36:47.395Z,940.87
2017-04-29T02:38:00.138Z,940.9
2017-04-29T02:39:12.402Z,940.9
2017-04-29T02:40:25.140Z,940.92
2017-04-29T02:41:37.880Z,940.89
2017-04-29T02:42:50.625Z,940.87
2017-04-29T02:44:03.373Z,940.79
2017-04-29T02:45:15.645Z,940.79
2017-04-29T02:46:28.386Z,940.8
2017-04-29T02:47:41.135Z,940.81
2017-04-29T02:48:53.890Z,940.8
2017-04-29T02:50:06.647Z,940.82
2017-04-29T02:51:18.908Z,940.79
2017-04-29T02:52:31.646Z,940.79
2017-04-29T02:53:44.389Z,940.75
2017-04-29T02:54:57.140Z,940.77
2017-04-29T02:56:09.411Z,940.73
2017-04-29T02:57:21.670Z,940.73
2017-04-29T02:58:34.415Z,940.71
2017-04-29T02:59:47.173Z,940.69
2017-04-29T03:00:59.925Z,940.63
2017-04-29T03:02:12.194Z,940.64
2017-04-29T03:03:24.967Z,940.61
2017-04-29T03:04:38.085Z,940.61
2017-04-29T03:05:50.837Z,940.61
2017-04-29T03:07:03.584Z,940.57
2017-04-29T03:08:16.218Z,940.51
2017-04-29T03:09:29.075Z,940.53
2017-04-29T03:10:41.340Z,940.51
2017-04-29T03:11:54.079Z,940.5
2017-04-29T03:13:06.831Z,940.5
2017-04-29T03:14:19.575Z,940.49
2017-04-29T03:15:32.323Z,940.48
2017-04-29T03:16:45.066Z,940.48
2017-04-29T03:17:57.818Z,940.5
2017-04-29T03:19:10.083Z,940.46
2017-04-29T03:20:22.828Z,940.48
2017-04-29T03:21:35.574Z,940.45
2017-04-29T03:22:48.343Z,940.44
2017-04-29T03:24:01.084Z,940.4
2017-04-29T03:25:13.827Z,940.39
2017-04-29T03:26:40.651Z,940.37
2017-04-29T03:27:53.400Z,940.4
2017-04-29T03:29:06.153Z,940.38
2017-04-29T03:30:18.432Z,940.4
2017-04-29T03:31:31.188Z,940.37
2017-04-29T03:32:43.462Z,940.36
2017-04-29T03:33:56.223Z,940.37
2017-04-29T03:35:08.492Z,940.33
2017-04-29T03:36:21.489Z,940.31
2017-04-29T03:37:34.245Z,940.28
2017-04-29T03:38:46.995Z,940.29
2017-04-29T03:39:59.748Z,940.27
2017-04-29T03:41:12.016Z,940.29
2017-04-29T03:42:24.289Z,940.26
2017-04-29T03:43:37.047Z,940.22
2017-04-29T03:44:49.807Z,940.23
2017-04-29T03:46:02.563Z,940.18
2017-04-29T03:47:14.366Z,940.18
2017-04-29T03:48:27.119Z,940.17
2017-04-29T03:49:39.868Z,940.14
2017-04-29T03:50:52.651Z,940.13
2017-04-29T03:52:05.398Z,940.08
2017-04-29T03:53:18.156Z,940.07
2017-04-29T03:54:30.920Z,939.99
2017-04-29T03:55:43.188Z,939.98
2017-04-29T03:56:55.454Z,939.99
2017-04-29T03:58:07.715Z,939.94
2017-04-29T03:59:20.456Z,939.93
2017-04-29T04:00:32.722Z,939.91
2017-04-29T04:01:45.473Z,939.88
2017-04-29T04:02:58.233Z,939.85
2017-04-29T04:04:11.227Z,939.86
2017-04-29T04:05:23.972Z,939.85
2017-04-29T04:06:36.715Z,939.8
2017-04-29T04:07:49.461Z,939.79
2017-04-29T04:09:02.462Z,939.82
2017-04-29T04:10:15.215Z,939.8
2017-04-29T04:11:27.475Z,939.79
2017-04-29T04:12:40.221Z,939.77
2017-04-29T04:13:52.970Z,939.76
2017-04-29T04:15:05.721Z,939.75
2017-04-29T04:16:18.482Z,939.75
2017-04-29T04:17:31.228Z,939.69
2017-04-29T04:18:43.974Z,939.69
2017-04-29T04:19:56.723Z,939.63
2017-04-29T04:21:09.477Z,939.65
2017-04-29T04:22:21.746Z,939.63
2017-04-29T04:23:34.485Z,939.61
2017-04-29T04:24:47.222Z,939.63
2017-04-29T04:26:00.001Z,939.64
2017-04-29T04:27:12.743Z,939.59
2017-04-29T04:28:25.487Z,939.59
2017-04-29T04:29:38.234Z,939.62
2017-04-29T04:30:50.985Z,939.65
2017-04-29T04:32:03.731Z,939.66
2017-04-29T04:33:15.985Z,939.66
2017-04-29T04:34:28.249Z,939.68
2017-04-29T04:35:40.994Z,939.69
2017-04-29T04:36:54.037Z,939.7
2017-04-29T04:38:06.783Z,939.71
2017-04-29T04:39:19.064Z,939.69
2017-04-29T04:40:31.345Z,939.68
2017-04-29T04:41:43.911Z,939.63
2017-04-29T04:42:56.690Z,939.66
2017-04-29T04:44:08.960Z,939.65
2017-04-29T04:45:21.704Z,939.65
2017-04-29T04:46:33.968Z,939.63
2017-04-29T04:47:46.962Z,939.61
2017-04-29T04:48:59.723Z,939.62
2017-04-29T04:50:12.481Z,939.56
2017-04-29T04:51:25.223Z,939.58
2017-04-29T04:52:37.962Z,939.56
2017-04-29T04:53:50.698Z,939.51
2017-04-29T04:55:03.444Z,939.49
2017-04-29T04:56:15.708Z,939.44
2017-04-29T04:57:28.454Z,939.47
2017-04-29T04:58:55.284Z,939.47
2017-04-29T05:00:08.033Z,939.42
2017-04-29T05:01:20.770Z,939.45
2017-04-29T05:02:33.513Z,939.43
2017-04-29T05:03:46.260Z,939.42
2017-04-29T05:04:59.012Z,939.4
2017-04-29T05:06:11.760Z,939.42
2017-04-29T05:07:24.498Z,939.41
2017-04-29T05:08:37.001Z,939.37
2017-04-29T05:09:49.748Z,939.37
2017-04-29T05:11:02.483Z,939.36
2017-04-29T05:12:14.262Z,939.35
2017-04-29T05:13:26.997Z,939.38
2017-04-29T05:14:39.743Z,939.36
2017-04-29T05:15:52.005Z,939.37
2017-04-29T05:17:04.741Z,939.36
2017-04-29T05:18:17.485Z,939.32
2017-04-29T05:19:29.749Z,939.32
2017-04-29T05:20:42.485Z,939.36
2017-04-29T05:21:55.216Z,939.32
2017-04-29T05:23:07.475Z,939.3
2017-04-29T05:24:20.222Z,939.31
2017-04-29T05:25:33.231Z,939.35
2017-04-29T05:26:45.972Z,939.32
2017-04-29T05:27:58.717Z,939.32
2017-04-29T05:29:10.978Z,939.32
2017-04-29T05:30:24.027Z,939.28
2017-04-29T05:31:36.767Z,939.28
2017-04-29T05:32:49.028Z,939.27
2017-04-29T05:34:01.785Z,939.27
2017-04-29T05:35:14.053Z,939.29
2017-04-29T05:36:26.803Z,939.35
2017-04-29T05:37:39.066Z,939.34
2017-04-29T05:38:51.808Z,939.32
2017-04-29T05:40:04.564Z,939.31
2017-04-29T05:41:17.310Z,939.33
2017-04-29T05:42:30.057Z,939.35
2017-04-29T05:43:42.800Z,939.37
2017-04-29T05:44:55.539Z,939.32
2017-04-29T05:46:07.805Z,939.36
2017-04-29T05:47:19.839Z,939.36
2017-04-29T05:48:32.102Z,939.35
2017-04-29T05:49:44.848Z,939.31
2017-04-29T05:50:57.598Z,939.32
2017-04-29T05:52:10.351Z,939.31
2017-04-29T05:53:22.136Z,939.28
2017-04-29T05:54:34.879Z,939.33
2017-04-29T05:55:47.626Z,939.3
2017-04-29T05:57:00.366Z,939.36
2017-04-29T05:58:13.109Z,939.32
2017-04-29T05:59:25.371Z,939.35
2017-04-29T06:00:38.117Z,939.34
2017-04-29T06:01:50.950Z,939.32
2017-04-29T06:03:03.992Z,939.29
2017-04-29T06:04:16.731Z,939.34
2017-04-29T06:05:29.480Z,939.33
2017-04-29T06:06:42.226Z,939.35
2017-04-29T06:07:54.970Z,939.34
2017-04-29T06:09:08.016Z,939.3
2017-04-29T06:10:20.759Z,939.29
2017-04-29T06:11:33.492Z,939.32
2017-04-29T06:12:46.223Z,939.27
2017-04-29T06:13:59.266Z,939.25
2017-04-29T06:15:12.004Z,939.23
2017-04-29T06:16:24.735Z,939.22
2017-04-29T06:17:36.517Z,939.18
2017-04-29T06:18:49.294Z,939.17
2017-04-29T06:20:02.336Z,939.11
2017-04-29T06:21:14.113Z,939.08
2017-04-29T06:22:26.846Z,939.1
2017-04-29T06:23:39.580Z,939.06
2017-04-29T06:24:52.622Z,939.04
2017-04-29T06:26:04.880Z,939.07
2017-04-29T06:27:17.140Z,939.06
2017-04-29T06:28:29.875Z,939.06
2017-04-29T06:29:42.616Z,939.05
2017-04-29T06:30:55.124Z,939.08
2017-04-29T06:32:07.864Z,939.1
2017-04-29T06:33:20.602Z,939.01
2017-04-29T06:34:33.342Z,938.98
2017-04-29T06:35:45.601Z,938.95
2017-04-29T06:36:58.373Z,938.91
2017-04-29T06:38:11.109Z,938.88
2017-04-29T06:39:23.367Z,938.94
2017-04-29T06:40:35.657Z,938.89
2017-04-29T06:41:48.692Z,938.88
2017-04-29T06:43:01.432Z,938.91
2017-04-29T06:44:13.711Z,938.87
2017-04-29T06:45:26.452Z,938.86
2017-04-29T06:46:38.717Z,938.88
2017-04-29T06:47:51.453Z,938.91
2017-04-29T06:49:04.198Z,938.92
2017-04-29T06:50:16.461Z,938.9
2017-04-29T06:51:29.203Z,938.89
2017-04-29T06:52:41.962Z,938.86
2017-04-29T06:53:54.748Z,938.91
2017-04-29T06:55:07.021Z,938.87
2017-04-29T06:56:19.762Z,938.88
2017-04-29T06:57:32.754Z,938.83
2017-04-29T06:58:45.500Z,938.83
2017-04-29T06:59:58.254Z,938.84
2017-04-29T07:01:10.521Z,938.86
2017-04-29T07:02:23.268Z,938.82
2017-04-29T07:03:36.034Z,938.84
2017-04-29T07:04:48.781Z,938.86
2017-04-29T07:06:01.538Z,938.84
2017-04-29T07:07:14.298Z,938.86
2017-04-29T07:08:27.062Z,938.82
2017-04-29T07:09:39.337Z,938.83
2017-04-29T07:10:52.087Z,938.84
2017-04-29T07:12:04.833Z,938.84
2017-04-29T07:13:17.100Z,938.84
2017-04-29T07:14:29.389Z,938.81
2017-04-29T07:15:42.134Z,938.88
2017-04-29T07:16:54.882Z,938.84
2017-04-29T07:18:07.629Z,938.84
2017-04-29T07:19:20.379Z,938.78
2017-04-29T07:20:33.130Z,938.77
2017-04-29T07:21:44.914Z,938.73
2017-04-29T07:22:57.669Z,938.75
2017-04-29T07:24:10.429Z,938.71
2017-04-29T07:25:23.193Z,938.73
2017-04-29T07:26:35.941Z,938.78
2017-04-29T07:27:47.728Z,938.81
2017-04-29T07:29:00.516Z,938.78
2017-04-29T07:30:13.594Z,938.81
2017-04-29T07:31:26.342Z,938.78
2017-04-29T07:32:39.096Z,938.78
2017-04-29T07:33:51.856Z,938.77
2017-04-29T07:35:04.601Z,938.78
2017-04-29T07:36:16.863Z,938.77
2017-04-29T07:37:29.617Z,938.78
2017-04-29T07:38:42.402Z,938.78
2017-04-29T07:39:54.673Z,938.77
2017-04-29T07:41:07.244Z,938.76
2017-04-29T07:42:19.505Z,938.78
2017-04-29T07:43:31.773Z,938.79
2017-04-29T07:44:44.534Z,938.75
2017-04-29T07:45:57.282Z,938.74
2017-04-29T07:47:10.283Z,938.75
2017-04-29T07:48:23.028Z,938.81
2017-04-29T07:49:35.785Z,938.81
2017-04-29T07:50:48.535Z,938.77
2017-04-29T07:52:01.586Z,938.77
2017-04-29T07:53:13.857Z,938.76
2017-04-29T07:54:26.610Z,938.8
2017-04-29T07:55:39.362Z,938.78
2017-04-29T07:56:52.105Z,938.8
2017-04-29T07:58:05.094Z,938.81
2017-04-29T07:59:16.415Z,938.82
2017-04-29T08:00:29.167Z,938.81
2017-04-29T08:01:41.902Z,938.79
2017-04-29T08:02:54.644Z,938.78
2017-04-29T08:04:07.389Z,938.8
2017-04-29T08:05:19.653Z,938.84
2017-04-29T08:06:32.393Z,938.88
2017-04-29T08:07:45.137Z,938.89
2017-04-29T08:08:58.188Z,938.87
2017-04-29T08:10:10.936Z,938.94
2017-04-29T08:11:23.681Z,938.91
2017-04-29T08:12:36.421Z,938.91
2017-04-29T08:13:49.166Z,938.94
2017-04-29T08:15:01.921Z,938.93
2017-04-29T08:16:14.666Z,938.95
2017-04-29T08:17:26.931Z,938.99
2017-04-29T08:18:39.194Z,938.95
2017-04-29T08:19:51.233Z,938.96
2017-04-29T08:21:03.981Z,938.99
2017-04-29T08:22:16.720Z,939.01
2017-04-29T08:23:29.461Z,939.02
2017-04-29T08:24:42.208Z,938.99
2017-04-29T08:25:54.960Z,939.03
2017-04-29T08:27:07.709Z,939.06
2017-04-29T08:28:20.450Z,939.05
2017-04-29T08:29:33.187Z,939.06
2017-04-29T08:30:45.937Z,939.07
2017-04-29T08:31:58.688Z,939.12
2017-04-29T08:33:11.427Z,939.09
2017-04-29T08:34:23.706Z,939.06
2017-04-29T08:35:36.450Z,939.1
2017-04-29T08:36:49.196Z,939.08
2017-04-29T08:38:01.942Z,939.11
2017-04-29T08:39:14.688Z,939.09
2017-04-29T08:40:26.977Z,939.11
2017-04-29T08:41:39.722Z,939.07
2017-04-29T08:42:52.468Z,939.13
2017-04-29T08:44:05.224Z,939.17
2017-04-29T08:45:17.494Z,939.19
2017-04-29T08:46:29.761Z,939.19
2017-04-29T08:47:42.498Z,939.2
2017-04-29T08:48:55.244Z,939.22
2017-04-29T08:50:08.000Z,939.22
2017-04-29T08:51:20.738Z,939.22
2017-04-29T08:52:33.007Z,939.24
2017-04-29T08:53:45.751Z,939.24
2017-04-29T08:54:58.496Z,939.28
2017-04-29T08:56:11.248Z,939.31
2017-04-29T08:57:23.993Z,939.36
2017-04-29T08:58:36.744Z,939.36
2017-04-29T08:59:49.504Z,939.37
2017-04-29T09:01:02.253Z,939.43
2017-04-29T09:02:14.999Z,939.4
2017-04-29T09:03:27.988Z,939.42
2017-04-29T09:04:40.729Z,939.41
2017-04-29T09:05:53.476Z,939.44
2017-04-29T09:07:05.267Z,939.43
2017-04-29T09:08:18.014Z,939.45
2017-04-29T09:09:30.759Z,939.44
2017-04-29T09:10:43.503Z,939.43
2017-04-29T09:11:56.260Z,939.5
2017-04-29T09:13:09.009Z,939.43
2017-04-29T09:14:22.060Z,939.47
2017-04-29T09:15:34.798Z,939.44
2017-04-29T09:16:47.064Z,939.46
2017-04-29T09:17:59.814Z,939.47
2017-04-29T09:19:12.326Z,939.46
2017-04-29T09:20:24.592Z,939.5
2017-04-29T09:21:37.337Z,939.51
2017-04-29T09:22:50.081Z,939.5
2017-04-29T09:24:02.825Z,939.51
2017-04-29T09:25:16.624Z,939.49
2017-04-29T09:26:29.370Z,939.51
2017-04-29T09:27:42.114Z,939.49
2017-04-29T09:28:54.864Z,939.52
2017-04-29T09:30:07.605Z,939.5
2017-04-29T09:31:19.871Z,939.5
2017-04-29T09:32:32.615Z,939.49
2017-04-29T09:33:45.367Z,939.5
2017-04-29T09:34:58.111Z,939.55
2017-04-29T09:36:11.104Z,939.6
2017-04-29T09:37:23.371Z,939.62
2017-04-29T09:38:36.117Z,939.6
2017-04-29T09:39:48.862Z,939.62
2017-04-29T09:41:01.602Z,939.6
2017-04-29T09:42:14.347Z,939.67
2017-04-29T09:43:26.612Z,939.68
2017-04-29T09:44:39.360Z,939.76
2017-04-29T09:45:52.102Z,939.71
2017-04-29T09:47:04.845Z,939.72
2017-04-29T09:48:17.121Z,939.72
2017-04-29T09:49:29.875Z,939.75
2017-04-29T09:50:42.618Z,939.77
2017-04-29T09:51:55.663Z,939.78
2017-04-29T09:53:07.926Z,939.81
2017-04-29T09:54:20.672Z,939.8
2017-04-29T09:55:32.929Z,939.81
2017-04-29T09:56:45.665Z,939.84
2017-04-29T09:57:57.929Z,939.81
2017-04-29T09:59:10.195Z,939.84
2017-04-29T10:00:22.465Z,939.81
2017-04-29T10:01:34.726Z,939.87
2017-04-29T10:02:47.465Z,939.89
2017-04-29T10:04:00.256Z,939.87
2017-04-29T10:05:12.997Z,939.94
2017-04-29T10:06:25.729Z,939.94
2017-04-29T10:07:37.979Z,939.92
2017-04-29T10:08:50.964Z,939.94
2017-04-29T10:10:03.233Z,939.95
2017-04-29T10:11:15.516Z,939.94
2017-04-29T10:12:28.249Z,939.92
2017-04-29T10:13:40.995Z,939.95
2017-04-29T10:14:53.741Z,939.93
2017-04-29T10:16:06.476Z,939.95
2017-04-29T10:17:19.216Z,940.02
2017-04-29T10:18:31.983Z,939.97
2017-04-29T10:19:44.967Z,939.98
2017-04-29T10:20:57.712Z,940
2017-04-29T10:22:10.452Z,940.02
2017-04-29T10:23:23.190Z,940
2017-04-29T10:24:35.938Z,940.07
2017-04-29T10:25:48.686Z,940.05
2017-04-29T10:27:01.424Z,940.03
2017-04-29T10:28:14.166Z,940.03
2017-04-29T10:29:25.953Z,940.06
2017-04-29T10:30:38.948Z,940.06
2017-04-29T10:31:51.215Z,939.99
2017-04-29T10:33:03.952Z,940.02
2017-04-29T10:34:16.223Z,940.03
2017-04-29T10:35:28.972Z,940.07
2017-04-29T10:36:41.233Z,940.03
2017-04-29T10:37:53.978Z,940.04
2017-04-29T10:39:06.724Z,940.07
2017-04-29T10:40:19.471Z,940.1
2017-04-29T10:41:32.516Z,940.12
2017-04-29T10:42:45.256Z,940.1
2017-04-29T10:43:57.520Z,940.15
2017-04-29T10:45:09.792Z,940.17
2017-04-29T10:46:22.837Z,940.18
2017-04-29T10:47:35.585Z,940.2
2017-04-29T10:48:48.322Z,940.22
2017-04-29T10:50:01.068Z,940.25
2017-04-29T10:51:13.331Z,940.24
2017-04-29T10:52:26.331Z,940.23
2017-04-29T10:53:38.593Z,940.26
2017-04-29T10:54:51.335Z,940.28
2017-04-29T10:56:04.094Z,940.27
2017-04-29T10:57:16.663Z,940.25
2017-04-29T10:58:29.412Z,940.25
2017-04-29T10:59:42.165Z,940.33
2017-04-29T11:00:54.915Z,940.27
2017-04-29T11:02:07.183Z,940.34
2017-04-29T11:03:19.939Z,940.33
2017-04-29T11:04:32.699Z,940.35
2017-04-29T11:05:44.967Z,940.38
2017-04-29T11:06:57.717Z,940.37
2017-04-29T11:09:36.812Z,940.41
2017-04-29T11:10:49.561Z,940.39
2017-04-29T11:12:01.830Z,940.44
2017-04-29T11:13:13.626Z,940.42
2017-04-29T11:14:25.902Z,940.4
2017-04-29T11:15:38.178Z,940.45
2017-04-29T11:16:50.929Z,940.48
2017-04-29T11:18:03.681Z,940.51
2017-04-29T11:19:15.948Z,940.48
2017-04-29T11:20:28.220Z,940.53
2017-04-29T11:21:40.973Z,940.55
2017-04-29T11:22:53.753Z,940.57
2017-04-29T11:24:06.503Z,940.56
2017-04-29T11:25:19.284Z,940.56
2017-04-29T11:26:31.600Z,940.55
2017-04-29T11:27:43.866Z,940.63
2017-04-29T11:28:56.629Z,940.62
2017-04-29T11:30:08.900Z,940.64
2017-04-29T11:31:21.639Z,940.63
2017-04-29T11:32:34.382Z,940.66
2017-04-29T11:33:47.134Z,940.65
2017-04-29T11:35:00.136Z,940.7
2017-04-29T11:36:12.402Z,940.69
2017-04-29T11:37:25.144Z,940.71
2017-04-29T11:38:37.894Z,940.72
2017-04-29T11:39:50.647Z,940.75
2017-04-29T11:41:03.399Z,940.77
2017-04-29T11:42:16.148Z,940.78
2017-04-29T11:43:28.891Z,940.8
2017-04-29T11:44:41.643Z,940.77
2017-04-29T11:45:54.393Z,940.77
2017-04-29T11:47:06.663Z,940.75
2017-04-29T11:48:19.410Z,940.78
2017-04-29T11:49:32.176Z,940.8
2017-04-29T11:50:44.455Z,940.81
2017-04-29T11:51:56.974Z,940.8
2017-04-29T11:53:09.241Z,940.82
2017-04-29T11:54:21.991Z,940.84
2017-04-29T11:55:33.806Z,940.86
2017-04-29T11:56:46.082Z,940.88
2017-04-29T11:57:58.830Z,940.86
2017-04-29T11:59:11.104Z,940.87
2017-04-29T12:00:23.860Z,940.81
2017-04-29T12:01:36.140Z,940.83
2017-04-29T12:02:49.140Z,940.84
2017-04-29T12:04:01.892Z,940.82
2017-04-29T12:05:14.162Z,940.87
2017-04-29T12:06:26.921Z,940.91
2017-04-29T12:07:39.445Z,940.92
2017-04-29T12:08:51.716Z,940.92
2017-04-29T12:10:04.457Z,940.92
2017-04-29T12:11:17.198Z,940.92
2017-04-29T12:12:29.459Z,940.96
2017-04-29T12:13:56.287Z,940.97
2017-04-29T12:15:08.559Z,940.98
2017-04-29T12:16:20.830Z,940.98
2017-04-29T12:17:33.574Z,940.93
2017-04-29T12:18:46.563Z,940.94
2017-04-29T12:19:58.827Z,940.94
2017-04-29T12:21:10.606Z,940.97
2017-04-29T12:22:23.346Z,940.99
2017-04-29T12:23:36.087Z,941.01
2017-04-29T12:24:48.823Z,941
2017-04-29T12:26:01.563Z,941.04
2017-04-29T12:27:14.296Z,941.03
2017-04-29T12:28:27.093Z,941.03
2017-04-29T12:29:39.355Z,941.02
2017-04-29T12:30:51.618Z,941.02
2017-04-29T12:32:03.879Z,941.06
2017-04-29T12:33:16.137Z,941.03
2017-04-29T12:34:28.879Z,941.04
2017-04-29T12:35:41.140Z,941.03
2017-04-29T12:36:53.401Z,941.07
2017-04-29T12:38:06.141Z,941.04
2017-04-29T12:39:18.881Z,941.06
2017-04-29T12:40:31.623Z,941.02
2017-04-29T12:41:44.358Z,940.99
2017-04-29T12:42:57.096Z,940.97
2017-04-29T12:44:09.843Z,940.99
2017-04-29T12:45:22.890Z,941.03
2017-04-29T12:46:35.625Z,941.02
2017-04-29T12:47:48.363Z,941.01
2017-04-29T12:49:01.107Z,940.98
2017-04-29T12:50:13.368Z,940.98
2017-04-29T12:51:26.108Z,941.04
2017-04-29T12:52:38.366Z,941.03
2017-04-29T12:53:50.633Z,941.06
2017-04-29T12:55:03.375Z,941.07
2017-04-29T12:56:16.413Z,941.08
2017-04-29T12:57:29.153Z,941.07
2017-04-29T12:58:41.411Z,941.03
2017-04-29T12:59:53.197Z,941.02
2017-04-29T13:01:05.459Z,940.99
2017-04-29T13:02:17.723Z,940.98
2017-04-29T13:03:30.466Z,941
2017-04-29T13:04:43.207Z,940.98
2017-04-29T13:05:55.470Z,940.98
2017-04-29T13:07:08.210Z,940.96
2017-04-29T13:08:21.252Z,940.98
2017-04-29T13:09:34.003Z,940.96
2017-04-29T13:10:46.741Z,940.89
2017-04-29T13:11:59.482Z,940.91
2017-04-29T13:13:12.233Z,940.99
2017-04-29T13:14:24.518Z,940.93
2017-04-29T13:15:37.256Z,940.96
2017-04-29T13:16:49.995Z,940.95
2017-04-29T13:18:02.260Z,940.92
2017-04-29T13:19:14.526Z,940.86
2017-04-29T13:20:27.271Z,940.88
2017-04-29T13:21:39.526Z,940.91
2017-04-29T13:22:52.262Z,940.91
2017-04-29T13:24:05.003Z,940.88
2017-04-29T13:25:17.746Z,940.85
2017-04-29T13:26:30.005Z,940.84
2017-04-29T13:27:42.752Z,940.86
2017-04-29T13:28:55.499Z,940.83
2017-04-29T13:30:08.241Z,940.83
2017-04-29T13:31:19.549Z,940.82
2017-04-29T13:32:32.288Z,940.81
2017-04-29T13:33:45.029Z,940.78
2017-04-29T13:34:58.028Z,940.75
2017-04-29T13:36:10.291Z,940.71
2017-04-29T13:37:22.561Z,940.73
2017-04-29T13:38:35.305Z,940.71
2017-04-29T13:39:47.569Z,940.66
2017-04-29T13:41:14.389Z,940.61
2017-04-29T13:42:27.157Z,940.58
2017-04-29T13:43:39.423Z,940.57
2017-04-29T13:44:52.166Z,940.54
2017-04-29T13:46:04.906Z,940.48
2017-04-29T13:47:17.166Z,940.45
2017-04-29T13:48:29.909Z,940.48
2017-04-29T13:49:42.645Z,940.47
2017-04-29T13:50:55.639Z,940.49
2017-04-29T13:52:08.374Z,940.54
2017-04-29T13:53:21.116Z,940.46
2017-04-29T13:54:33.858Z,940.54
2017-04-29T13:55:46.601Z,940.47
2017-04-29T13:56:59.593Z,940.46
2017-04-29T13:58:11.856Z,940.43
2017-04-29T13:59:24.123Z,940.43
2017-04-29T14:00:36.861Z,940.41
2017-04-29T14:01:49.611Z,940.41
2017-04-29T14:03:01.873Z,940.42
2017-04-29T14:04:14.138Z,940.35
2017-04-29T14:05:26.397Z,940.34
2017-04-29T14:06:39.132Z,940.3
2017-04-29T14:07:51.870Z,940.3
2017-04-29T14:09:04.136Z,940.26
2017-04-29T14:10:16.398Z,940.22
2017-04-29T14:11:29.144Z,940.22
2017-04-29T14:12:41.406Z,940.2
2017-04-29T14:13:54.156Z,940.24
2017-04-29T14:15:06.419Z,940.23
2017-04-29T14:16:18.686Z,940.21
2017-04-29T14:17:31.421Z,940.21
2017-04-29T14:18:44.160Z,940.16
2017-04-29T14:19:56.905Z,940.16
2017-04-29T14:21:09.175Z,940.18
2017-04-29T14:22:21.924Z,940.15
2017-04-29T14:23:34.910Z,940.17
2017-04-29T14:24:47.662Z,940.16
2017-04-29T14:26:00.412Z,940.14
2017-04-29T14:27:13.160Z,940.17
2017-04-29T14:28:25.911Z,940.13
2017-04-29T14:29:38.177Z,940.11
2017-04-29T14:30:50.933Z,940.11
2017-04-29T14:32:03.686Z,940.11
2017-04-29T14:33:16.439Z,940.13
2017-04-29T14:35:56.035Z,940.07
2017-04-29T14:37:07.825Z,940
2017-04-29T14:38:20.091Z,939.97
2017-04-29T14:39:32.370Z,939.97
2017-04-29T14:40:45.129Z,939.96
2017-04-29T14:41:57.400Z,939.92
2017-04-29T14:43:10.154Z,939.9
2017-04-29T14:44:22.423Z,939.92
2017-04-29T14:45:34.695Z,939.88
2017-04-29T14:46:47.452Z,939.83
2017-04-29T14:48:00.207Z,939.79
2017-04-29T14:49:12.001Z,939.84
2017-04-29T14:50:24.297Z,939.77
2017-04-29T14:51:37.050Z,939.77
2017-04-29T14:52:49.797Z,939.78
2017-04-29T14:54:02.555Z,939.74
2017-04-29T14:55:14.828Z,939.73
2017-04-29T14:56:27.574Z,939.73
2017-04-29T14:57:40.326Z,939.71
2017-04-29T14:58:53.084Z,939.65
2017-04-29T15:00:05.828Z,939.69
2017-04-29T15:01:18.575Z,939.69
2017-04-29T15:02:31.331Z,939.62
2017-04-29T15:03:44.088Z,939.65
2017-04-29T15:04:56.361Z,939.64
2017-04-29T15:06:09.103Z,939.6
2017-04-29T15:07:21.858Z,939.61
2017-04-29T15:08:34.609Z,939.58
2017-04-29T15:09:47.366Z,939.58
2017-04-29T15:11:00.128Z,939.62
2017-04-29T15:12:12.649Z,939.58
2017-04-29T15:13:25.404Z,939.62